DW8209 Gubbio IT current weather conditions

sailwx.info

Last reported at 2016-Feb-13 03:52 UTC.
Time now 2016-Feb-13 04:38 UTC

Location: N 43°19' E 012°34'.
View on Google Maps.

See reports from other nearby stations

  
Tides and Currents Weather Stations Pressure Air Temp Water Temp Dewpoint Dewpoint Depression Visibility Wind Speed Wind Dir Waves Ship Positions
date/time (UTC)wind fromknots sea level pressurealtimeterstation pressurevisibilityair tempwater tempwave heightnotes
2016-Feb-13 03:52
2016-Feb-13 03:37
2016-Feb-13 03:22
2016-Feb-13 03:07
2016-Feb-13 02:52
2016-Feb-13 02:37
2016-Feb-13 02:22
2016-Feb-13 02:07
2016-Feb-13 01:52
2016-Feb-13 01:36
2016-Feb-13 01:21 269 0 gusting 14 7.2
2016-Feb-13 01:06 283 0 gusting 8 7.2
2016-Feb-13 00:51 278 0 gusting 10 7.2
2016-Feb-13 00:36 277 7.8
2016-Feb-13 00:21 281 0 gusting 10 7.8
2016-Feb-13 00:06 257 1 gusting 12 7.8
2016-Feb-12 23:51 252 2 gusting 15 7.2
2016-Feb-12 23:36 295 1 gusting 14 7.8
2016-Feb-12 23:21 198 0 gusting 12 8.3
2016-Feb-12 23:06 224 2 gusting 16 8.3
2016-Feb-12 22:51 229 3 gusting 18 7.8
2016-Feb-12 22:36 212 2 gusting 12 7.2
2016-Feb-12 22:21 155 4 gusting 15 7.2
2016-Feb-12 22:06 195 5 gusting 16 7.2
2016-Feb-12 21:51 152 2 gusting 19 7.2
2016-Feb-12 21:36 204 6 gusting 19 6.7
2016-Feb-12 21:21 167 6 gusting 17 6.7
2016-Feb-12 21:06 184 5 gusting 19 6.7
2016-Feb-12 20:51 184 4 gusting 23 6.7
2016-Feb-12 20:36 210 6 gusting 16 7.2
2016-Feb-12 20:21 247 2 gusting 7 7.2
2016-Feb-12 20:06 228 2 gusting 9 7.2
2016-Feb-12 19:51 177 6 gusting 13 7.2
2016-Feb-12 19:36 157 6 gusting 10 7.2
2016-Feb-12 19:20 142 8 gusting 15 7.2
2016-Feb-12 19:05 179 7 gusting 13 7.2
2016-Feb-12 18:50 197 6 gusting 11 7.2
2016-Feb-12 18:35 196 4 gusting 12 7.2
2016-Feb-12 18:20 136 6 gusting 13 7.2
2016-Feb-12 18:05 169 4 gusting 13 7.2
2016-Feb-12 17:50 146 2 gusting 7 7.8
2016-Feb-12 17:35 145 3 gusting 9 7.8
2016-Feb-12 17:20 162 1 gusting 9 7.8
2016-Feb-12 17:05 165 4 gusting 11 7.8
2016-Feb-12 16:50 169 4 gusting 9 7.8
2016-Feb-12 16:35 148 1 gusting 5 7.8
2016-Feb-12 16:20 089 3 gusting 6 7.2
2016-Feb-12 16:05 091 3 gusting 5 7.8
2016-Feb-12 15:50 126 2 gusting 6 7.8
2016-Feb-12 15:35 165 5 gusting 7 7.8
2016-Feb-12 15:20 173 2 gusting 8 7.8
2016-Feb-12 15:05 153 3 gusting 7 7.8
2016-Feb-12 14:50 218 6 gusting 13 8.3
2016-Feb-12 14:35 195 6 gusting 10 8.3
2016-Feb-12 14:20 188 6 gusting 10 8.3
2016-Feb-12 14:05 184 4 gusting 6 8.3
2016-Feb-12 13:50 204 4 gusting 8 7.8
2016-Feb-12 13:35 188 5 gusting 11 8.3
2016-Feb-12 13:20 181 3 gusting 12 7.8
2016-Feb-12 13:04 184 6 gusting 11 8.3
2016-Feb-12 12:49 203 6 gusting 11 7.8
2016-Feb-12 12:34 201 3 gusting 8 7.2
2016-Feb-12 12:19 224 2 gusting 6 6.7
2016-Feb-12 12:04 165 1 gusting 3 6.7
2016-Feb-12 11:49 205 7.2
2016-Feb-12 11:34 287 7.2
2016-Feb-12 11:19 225 5 gusting 8 7.2
2016-Feb-12 11:04 149 6 gusting 11 7.8
2016-Feb-12 10:49 212 6 gusting 10 7.8
2016-Feb-12 10:34 165 4 gusting 11 7.8
2016-Feb-12 10:19 156 5 gusting 11 7.8
2016-Feb-12 10:04 191 2 gusting 9 7.2
2016-Feb-12 09:49 208 4 gusting 10 7.2
2016-Feb-12 09:34 212 5 gusting 8 7.2
2016-Feb-12 09:19 231 1 gusting 7 6.7
2016-Feb-12 09:04 193 4 gusting 10 6.7
2016-Feb-12 08:49 212 5 gusting 8 6.7
2016-Feb-12 08:34 187 2 gusting 6 6.7
2016-Feb-12 08:19 224 2 gusting 6 6.7
2016-Feb-12 08:04 235 4 gusting 6 6.7
2016-Feb-12 07:49 204 4 gusting 6 6.7
2016-Feb-12 07:34
2016-Feb-12 07:19
2016-Feb-12 07:04
2016-Feb-12 06:49
2016-Feb-12 06:33
2016-Feb-12 06:18
2016-Feb-12 06:03
2016-Feb-12 05:48
2016-Feb-12 05:33
2016-Feb-12 05:18
2016-Feb-12 05:03
2016-Feb-12 04:48
2016-Feb-12 04:33
2016-Feb-12 04:18
2016-Feb-12 04:03
2016-Feb-12 03:48
2016-Feb-12 03:33
2016-Feb-12 03:18
2016-Feb-12 03:03
2016-Feb-12 02:47
2016-Feb-12 02:32
2016-Feb-12 02:17
2016-Feb-12 02:02
2016-Feb-12 01:47
2016-Feb-12 01:32 236 5.6
2016-Feb-12 01:17 212 5.6
2016-Feb-12 01:02 034 0 gusting 1 5.6
2016-Feb-12 00:47 053 5.6
2016-Feb-12 00:32 302 5.6
2016-Feb-12 00:17 295 5.6
2016-Feb-12 00:02 054 5.6
2016-Feb-11 23:47 044 1 gusting 2 5.6
2016-Feb-11 23:32 074 5.6
2016-Feb-11 23:17 139 5.6
2016-Feb-11 23:02 188 5.0
2016-Feb-11 22:47 127 5.0
2016-Feb-11 22:32 096 5.0
2016-Feb-11 22:17 110 2 gusting 3 5.0
2016-Feb-11 22:02 093 5.0
2016-Feb-11 21:47 114 0 gusting 3 4.4
2016-Feb-11 21:32 091 4.4
2016-Feb-11 21:17 037 0 gusting 1 3.3
2016-Feb-11 21:02 064 2.8
2016-Feb-11 20:47 129 2.8
2016-Feb-11 20:32 157 0 gusting 1 2.8
2016-Feb-11 20:17 313 2.2
2016-Feb-11 20:02 312 2.2
2016-Feb-11 19:47 312 2.2
2016-Feb-11 19:32 304 1.7
2016-Feb-11 19:17 092 0 gusting 1 1.7
2016-Feb-11 19:02 123 1.7
2016-Feb-11 18:47 162 1.7
2016-Feb-11 18:31 245 2.2
2016-Feb-11 18:16 243 2.2
2016-Feb-11 18:01 221 2.2
2016-Feb-11 17:46 204 2.8
2016-Feb-11 17:31 249 0 gusting 2 3.9
2016-Feb-11 17:16 319 1 gusting 2 4.4
2016-Feb-11 17:01 117 4.4
2016-Feb-11 16:46 277 6.1
2016-Feb-11 16:31 276 0 gusting 1 7.2
2016-Feb-11 16:16 236 0 gusting 1 7.8
2016-Feb-11 16:01 177 0 gusting 3 8.3
2016-Feb-11 15:46 171 1 gusting 5 8.9
2016-Feb-11 15:31 204 3 gusting 5 8.9
2016-Feb-11 15:16 158 0 gusting 5 8.9
2016-Feb-11 15:01 215 1 gusting 4 8.3
2016-Feb-11 14:46 215 0 gusting 3 8.3
2016-Feb-11 14:31 194 4 gusting 9 8.3
2016-Feb-11 14:16 219 4 gusting 8 8.9
2016-Feb-11 14:01 252 1 gusting 4 8.9
2016-Feb-11 13:46 244 2 gusting 5 8.3
2016-Feb-11 13:31 264 3 gusting 8 8.9
2016-Feb-11 13:16 278 3 gusting 7 8.3
2016-Feb-11 13:01 285 4 gusting 6 8.3
2016-Feb-11 12:46 266 5 gusting 7 8.3
2016-Feb-11 12:31 110 7.8
2016-Feb-11 12:16 268 5 gusting 10 7.8
2016-Feb-11 12:01 284 6 gusting 9 7.8
2016-Feb-11 11:46 278 1 gusting 4 7.8
2016-Feb-11 11:31 277 5 gusting 7 7.2
2016-Feb-11 11:16 286 0 gusting 4 6.7
2016-Feb-11 11:01 179 0 gusting 3 6.7
2016-Feb-11 10:46 225 1 gusting 2 6.7
2016-Feb-11 10:31 242 6.7
2016-Feb-11 10:16 235 1 gusting 3 7.2
2016-Feb-11 10:01 119 6.7
2016-Feb-11 09:46 191 0 gusting 2 6.1
2016-Feb-11 09:30 101 0 gusting 2 5.6
2016-Feb-11 09:15 142 5.0
2016-Feb-11 09:00 229 5.0
2016-Feb-11 08:45 008 0 gusting 1 5.6
2016-Feb-11 08:30 064 4.4
2016-Feb-11 08:15 069 0 gusting 2 3.9
2016-Feb-11 08:00 110 1 gusting 3 3.9
2016-Feb-11 07:45 142 1 gusting 3 3.9
2016-Feb-11 07:30 124 1 gusting 2 3.3
2016-Feb-11 07:15
2016-Feb-11 07:00
2016-Feb-11 06:45
2016-Feb-11 06:30
2016-Feb-11 06:15
2016-Feb-11 06:00
2016-Feb-11 05:45
2016-Feb-11 05:30
2016-Feb-11 05:14
2016-Feb-11 04:59
2016-Feb-11 04:44
2016-Feb-11 04:29
2016-Feb-11 04:14
2016-Feb-11 04:00